createdAt,value
2023-05-09T00:00:48.361Z,96.60
2023-05-09T00:03:16.346Z,96.60
2023-05-09T00:05:44.334Z,96.30
2023-05-09T00:08:13.800Z,96.50
2023-05-09T00:10:41.773Z,97.00
2023-05-09T00:13:09.808Z,96.30
2023-05-09T00:15:37.832Z,96.00
2023-05-09T00:18:05.967Z,95.80
2023-05-09T00:20:34.960Z,96.30
2023-05-09T00:23:02.867Z,96.30
2023-05-09T00:25:32.099Z,96.40
2023-05-09T00:28:00.050Z,95.80
2023-05-09T00:30:27.980Z,96.00
2023-05-09T00:32:55.979Z,95.70
2023-05-09T00:35:24.155Z,96.00
2023-05-09T00:37:52.119Z,95.70
2023-05-09T00:40:20.076Z,96.20
2023-05-09T00:42:49.372Z,96.30
2023-05-09T00:45:17.321Z,96.90
2023-05-09T00:47:45.356Z,96.80
2023-05-09T00:50:13.890Z,96.80
2023-05-09T00:52:42.957Z,97.20
2023-05-09T00:55:11.596Z,97.40
2023-05-09T00:57:39.835Z,97.20
2023-05-09T01:00:13.353Z,97.00
2023-05-09T01:02:42.347Z,97.10
2023-05-09T01:05:10.717Z,96.10
2023-05-09T01:07:45.125Z,96.00
2023-05-09T01:10:22.476Z,96.50
2023-05-09T01:12:57.178Z,96.50
2023-05-09T01:15:32.673Z,96.50
2023-05-09T01:18:05.107Z,96.50
2023-05-09T01:20:36.909Z,96.10
2023-05-09T01:23:22.195Z,96.00
2023-05-09T01:26:02.360Z,95.80
2023-05-09T01:28:50.547Z,95.60
2023-05-09T01:31:20.989Z,95.30
2023-05-09T01:33:54.096Z,95.50
2023-05-09T01:36:23.293Z,95.30
2023-05-09T01:38:53.603Z,95.40
2023-05-09T01:41:24.925Z,95.20
2023-05-09T01:43:54.907Z,95.50
2023-05-09T01:46:25.487Z,95.60
2023-05-09T01:48:54.354Z,95.40
2023-05-09T01:51:23.141Z,96.00
2023-05-09T01:53:53.448Z,96.40
2023-05-09T01:56:23.426Z,96.00
2023-05-09T01:58:52.039Z,96.00
2023-05-09T02:01:20.751Z,96.00
2023-05-09T02:03:53.156Z,95.30
2023-05-09T02:06:23.175Z,95.00
2023-05-09T02:08:52.195Z,94.80
2023-05-09T02:11:20.163Z,95.00
2023-05-09T02:13:48.159Z,95.50
2023-05-09T02:16:17.234Z,95.00
2023-05-09T02:18:45.316Z,95.20
2023-05-09T02:21:14.658Z,94.20
2023-05-09T02:23:42.680Z,94.20
2023-05-09T02:26:10.957Z,93.70
2023-05-09T02:28:40.000Z,93.90
2023-05-09T02:31:10.190Z,93.60
2023-05-09T02:33:39.403Z,92.90
2023-05-09T02:36:08.485Z,93.50
2023-05-09T02:38:37.953Z,93.80
2023-05-09T02:41:06.083Z,94.30
2023-05-09T02:43:33.999Z,94.50
2023-05-09T02:46:01.909Z,95.00
2023-05-09T02:48:29.859Z,95.10
2023-05-09T02:50:58.335Z,94.80
2023-05-09T02:53:26.263Z,95.40
2023-05-09T02:55:55.500Z,95.40
2023-05-09T02:58:23.405Z,94.90
2023-05-09T03:00:51.338Z,94.70
2023-05-09T03:03:19.358Z,94.80
2023-05-09T03:05:47.351Z,94.90
2023-05-09T03:08:15.962Z,94.60
2023-05-09T03:10:43.949Z,94.50
2023-05-09T03:13:13.221Z,94.20
2023-05-09T03:15:41.108Z,95.10
2023-05-09T03:18:08.978Z,94.00
2023-05-09T03:20:36.885Z,94.20
2023-05-09T03:23:04.789Z,94.70
2023-05-09T03:25:32.658Z,94.80
2023-05-09T03:28:00.506Z,93.70
2023-05-09T03:30:29.897Z,94.20
2023-05-09T03:32:57.856Z,95.00
2023-05-09T03:35:25.736Z,95.00
2023-05-09T03:37:53.648Z,95.30
2023-05-09T03:40:21.485Z,95.80
2023-05-09T03:42:49.392Z,95.90
2023-05-09T03:45:17.259Z,96.10
2023-05-09T03:47:46.492Z,96.20
2023-05-09T03:50:14.400Z,95.50
2023-05-09T03:52:42.288Z,95.50
2023-05-09T03:55:11.005Z,96.00
2023-05-09T03:57:38.958Z,96.00
2023-05-09T04:00:08.336Z,96.10
2023-05-09T04:02:36.383Z,96.10
2023-05-09T04:05:06.460Z,96.00
2023-05-09T04:07:34.509Z,96.70
2023-05-09T04:10:02.351Z,96.70
2023-05-09T04:12:30.477Z,96.50
2023-05-09T04:14:58.352Z,95.90
2023-05-09T04:17:26.407Z,96.30
2023-05-09T04:19:54.335Z,97.00
2023-05-09T04:22:23.940Z,95.70
2023-05-09T04:24:51.902Z,95.70
2023-05-09T04:27:19.763Z,95.80
2023-05-09T04:29:49.345Z,95.90
2023-05-09T04:32:17.595Z,95.10
2023-05-09T04:34:45.481Z,94.50
2023-05-09T04:37:13.877Z,93.20
2023-05-09T04:39:43.442Z,91.50
2023-05-09T04:42:11.619Z,90.60
2023-05-09T04:44:39.463Z,86.60
2023-05-09T04:47:07.301Z,82.80
2023-05-09T04:49:35.161Z,79.60
2023-05-09T04:52:03.076Z,81.40
2023-05-09T04:54:31.003Z,82.90
2023-05-09T04:57:09.997Z,76.80
2023-05-09T04:59:44.887Z,75.90
2023-05-09T05:02:13.340Z,74.40
2023-05-09T05:04:41.187Z,70.30
2023-05-09T05:07:09.103Z,65.10
2023-05-09T05:09:37.020Z,63.10
2023-05-09T05:12:09.316Z,63.10
2023-05-09T05:14:37.801Z,51.80
2023-05-09T05:17:05.790Z,51.30
2023-05-09T05:19:34.128Z,52.10
2023-05-09T05:22:02.092Z,49.70
2023-05-09T05:24:29.952Z,50.60
2023-05-09T05:26:57.860Z,46.90
2023-05-09T05:29:27.098Z,50.60
2023-05-09T05:31:55.112Z,47.30
2023-05-09T05:34:23.135Z,48.60
2023-05-09T05:36:51.420Z,48.90
2023-05-09T05:39:19.753Z,44.10
2023-05-09T05:41:47.755Z,45.20
2023-05-09T05:44:18.301Z,47.60
2023-05-09T05:46:47.698Z,46.00
2023-05-09T05:49:15.854Z,45.30
2023-05-09T05:51:44.548Z,46.30
2023-05-09T05:54:12.830Z,45.20
2023-05-09T05:56:41.558Z,42.20
2023-05-09T05:59:11.847Z,43.40
2023-05-09T06:01:41.456Z,42.50
2023-05-09T06:04:10.863Z,45.00
2023-05-09T06:06:38.942Z,43.60
2023-05-09T06:09:07.033Z,43.20
2023-05-09T06:11:34.992Z,42.70
2023-05-09T06:14:02.944Z,42.80
2023-05-09T06:16:31.191Z,42.60
2023-05-09T06:18:59.250Z,44.50
2023-05-09T06:21:28.547Z,42.80
2023-05-09T06:26:27.418Z,45.20
2023-05-09T06:28:56.026Z,47.00
2023-05-09T06:31:25.619Z,45.30
2023-05-09T06:33:53.884Z,46.90
2023-05-09T06:36:21.923Z,44.20
2023-05-09T06:38:51.268Z,44.10
2023-05-09T06:41:19.184Z,44.50
2023-05-09T06:43:48.000Z,44.40
2023-05-09T06:46:16.362Z,47.10
2023-05-09T06:48:44.281Z,49.70
2023-05-09T06:51:12.477Z,48.80
2023-05-09T06:53:40.396Z,48.50
2023-05-09T06:56:09.719Z,49.00
2023-05-09T06:58:37.858Z,49.30
2023-05-09T07:01:06.479Z,48.70
2023-05-09T07:03:34.422Z,47.10
2023-05-09T07:06:02.308Z,49.90
2023-05-09T07:08:30.347Z,49.50
2023-05-09T07:10:58.922Z,48.50
2023-05-09T07:13:28.257Z,49.20
2023-05-09T07:15:56.182Z,51.20
2023-05-09T07:18:24.067Z,50.00
2023-05-09T07:20:52.061Z,49.90
2023-05-09T07:23:19.968Z,46.40
2023-05-09T07:25:47.873Z,46.00
2023-05-09T07:28:15.824Z,49.40
2023-05-09T07:30:45.912Z,46.80
2023-05-09T07:33:13.851Z,45.10
2023-05-09T07:35:41.768Z,46.80
2023-05-09T07:38:11.047Z,46.30
2023-05-09T07:40:39.368Z,46.70
2023-05-09T07:43:07.318Z,46.20
2023-05-09T07:45:36.429Z,47.80
2023-05-09T07:48:06.632Z,44.80
2023-05-09T07:50:34.929Z,45.30
2023-05-09T07:53:03.047Z,45.00
2023-05-09T07:55:31.004Z,44.40
2023-05-09T07:57:58.888Z,45.60
2023-05-09T08:00:27.019Z,46.60
2023-05-09T08:02:55.643Z,43.10
2023-05-09T08:05:25.253Z,42.70
2023-05-09T08:07:53.227Z,42.30
2023-05-09T08:10:23.708Z,40.70
2023-05-09T08:12:52.536Z,40.40
2023-05-09T08:15:20.594Z,37.30
2023-05-09T08:17:48.716Z,33.80
2023-05-09T08:20:17.441Z,36.20
2023-05-09T08:22:51.542Z,33.10
2023-05-09T08:25:21.928Z,30.70
2023-05-09T08:27:53.070Z,30.90
2023-05-09T08:30:21.669Z,30.50
2023-05-09T08:32:49.976Z,30.90
2023-05-09T08:35:19.345Z,29.90
2023-05-09T08:37:48.909Z,29.90
2023-05-09T08:40:17.942Z,31.80
2023-05-09T08:42:47.257Z,32.40
2023-05-09T08:45:17.363Z,32.50
2023-05-09T08:47:46.882Z,32.80
2023-05-09T08:50:18.351Z,34.80
2023-05-09T08:52:49.136Z,32.50
2023-05-09T08:55:17.725Z,36.10
2023-05-09T08:57:45.794Z,34.50
2023-05-09T09:00:16.553Z,33.70
2023-05-09T09:02:47.135Z,34.10
2023-05-09T09:05:34.186Z,33.40
2023-05-09T09:08:08.470Z,33.70
2023-05-09T09:10:36.888Z,33.30
2023-05-09T09:13:06.224Z,32.00
2023-05-09T09:15:37.622Z,33.70
2023-05-09T09:18:09.929Z,32.30
2023-05-09T09:20:44.562Z,31.30
2023-05-09T09:23:18.331Z,31.70
2023-05-09T09:25:47.777Z,31.40
2023-05-09T09:28:16.016Z,33.60
2023-05-09T09:30:48.732Z,33.40
2023-05-09T09:33:23.438Z,31.50
2023-05-09T09:35:52.310Z,30.10
2023-05-09T09:38:23.641Z,32.10
2023-05-09T09:40:55.682Z,30.80
2023-05-09T09:43:29.197Z,25.00
2023-05-09T09:45:58.197Z,27.80
2023-05-09T09:48:26.846Z,26.00
2023-05-09T09:50:57.017Z,25.60
2023-05-09T09:53:30.305Z,26.30
2023-05-09T09:55:58.496Z,26.30
2023-05-09T09:58:26.408Z,26.00
2023-05-09T10:01:09.763Z,24.60
2023-05-09T10:03:39.058Z,27.10
2023-05-09T10:06:10.250Z,27.40
2023-05-09T10:08:39.587Z,26.00
2023-05-09T10:11:07.841Z,27.30
2023-05-09T10:13:37.430Z,24.60
2023-05-09T10:16:06.759Z,25.40
2023-05-09T10:18:35.742Z,24.70
2023-05-09T10:21:05.289Z,24.10
2023-05-09T10:23:35.465Z,24.70
2023-05-09T10:26:22.901Z,24.30
2023-05-09T10:28:56.176Z,24.60
2023-05-09T10:31:27.057Z,22.80
2023-05-09T10:33:56.487Z,24.80
2023-05-09T10:36:25.056Z,23.70
2023-05-09T10:38:55.339Z,24.50
2023-05-09T10:41:25.700Z,24.20
2023-05-09T10:43:56.539Z,23.80
2023-05-09T10:46:24.940Z,23.20
2023-05-09T10:48:53.035Z,24.40
2023-05-09T10:51:21.577Z,26.90
2023-05-09T10:53:51.541Z,23.70
2023-05-09T10:56:29.854Z,23.40
2023-05-09T10:58:57.788Z,26.20
2023-05-09T11:01:35.209Z,22.20
2023-05-09T11:04:09.937Z,25.80
2023-05-09T11:06:49.389Z,24.40
2023-05-09T11:09:33.096Z,25.10
2023-05-09T11:12:10.426Z,24.90
2023-05-09T11:14:44.431Z,23.80
2023-05-09T11:17:14.128Z,24.00
2023-05-09T11:20:06.636Z,22.60
2023-05-09T11:22:41.365Z,23.50
2023-05-09T11:25:10.554Z,21.70
2023-05-09T11:27:42.510Z,20.50
2023-05-09T11:30:12.638Z,18.70
2023-05-09T11:32:46.231Z,20.30
2023-05-09T11:35:16.137Z,19.10
2023-05-09T11:37:49.013Z,20.40
2023-05-09T11:40:18.809Z,20.90
2023-05-09T11:42:49.959Z,19.50
2023-05-09T11:45:18.786Z,20.70
2023-05-09T11:47:47.261Z,19.00
2023-05-09T11:50:17.138Z,19.20
2023-05-09T11:52:45.098Z,19.90
2023-05-09T11:55:14.904Z,18.30
2023-05-09T11:57:46.320Z,18.80
2023-05-09T12:00:17.637Z,19.30
2023-05-09T12:02:46.991Z,19.70
2023-05-09T12:05:16.919Z,21.00
2023-05-09T12:07:45.380Z,20.00
2023-05-09T12:10:15.548Z,19.20
2023-05-09T12:12:45.204Z,19.40
2023-05-09T12:15:15.530Z,17.70
2023-05-09T12:17:44.949Z,18.90
2023-05-09T12:20:13.687Z,18.50
2023-05-09T12:22:44.431Z,19.30
2023-05-09T12:25:13.114Z,19.00
2023-05-09T12:27:43.366Z,20.60
2023-05-09T12:30:14.647Z,18.50
2023-05-09T12:32:44.297Z,17.80
2023-05-09T12:35:12.523Z,17.80
2023-05-09T12:37:40.456Z,17.90
2023-05-09T12:40:15.415Z,17.00
2023-05-09T12:42:46.192Z,16.30
2023-05-09T12:45:15.764Z,15.90
2023-05-09T12:47:45.743Z,16.90
2023-05-09T12:50:13.848Z,17.70
2023-05-09T12:52:58.938Z,17.70
2023-05-09T12:55:32.835Z,16.70
2023-05-09T12:58:02.509Z,16.60
2023-05-09T13:00:42.304Z,16.00
2023-05-09T13:03:25.227Z,17.00
2023-05-09T13:05:57.265Z,16.80
2023-05-09T13:08:25.243Z,15.40
2023-05-09T13:10:58.053Z,16.50
2023-05-09T13:13:32.704Z,15.70
2023-05-09T13:16:00.643Z,15.70
2023-05-09T13:18:29.968Z,19.90
2023-05-09T13:20:58.173Z,17.80
2023-05-09T13:23:26.019Z,17.50
2023-05-09T13:25:53.903Z,15.40
2023-05-09T13:28:21.718Z,17.20
2023-05-09T13:30:49.667Z,17.70
2023-05-09T13:35:53.737Z,17.10
2023-05-09T13:38:21.816Z,17.40
2023-05-09T13:40:49.675Z,19.60
2023-05-09T13:43:17.575Z,20.50
2023-05-09T13:45:45.545Z,18.40
2023-05-09T13:48:13.581Z,17.90
2023-05-09T13:50:41.530Z,19.00
2023-05-09T13:53:11.063Z,22.10
2023-05-09T13:55:39.154Z,22.10
2023-05-09T13:58:07.604Z,20.00
2023-05-09T14:00:35.915Z,19.50
2023-05-09T14:03:04.060Z,19.80
2023-05-09T14:05:32.684Z,20.10
2023-05-09T14:08:01.525Z,18.20
2023-05-09T14:10:30.802Z,20.10
2023-05-09T14:12:58.747Z,17.40
2023-05-09T14:15:26.651Z,18.70
2023-05-09T14:17:54.565Z,18.50
2023-05-09T14:20:22.517Z,20.50
2023-05-09T14:22:50.366Z,18.30
2023-05-09T14:25:18.271Z,20.30
2023-05-09T14:27:47.641Z,19.40
2023-05-09T14:30:15.888Z,19.80
2023-05-09T14:32:43.907Z,20.10
2023-05-09T14:35:11.870Z,20.70
2023-05-09T14:37:41.399Z,19.80
2023-05-09T14:40:10.522Z,19.80
2023-05-09T14:42:38.443Z,19.50
2023-05-09T14:45:12.659Z,20.90
2023-05-09T14:47:41.186Z,20.10
2023-05-09T14:50:15.607Z,18.80
2023-05-09T14:52:44.571Z,19.10
2023-05-09T14:55:12.729Z,17.80
2023-05-09T14:57:40.620Z,23.60
2023-05-09T15:00:20.604Z,21.20
2023-05-09T15:02:50.285Z,19.70
2023-05-09T15:05:18.689Z,19.60
2023-05-09T15:07:46.713Z,20.40
2023-05-09T15:10:14.926Z,19.80
2023-05-09T15:12:43.210Z,19.70
2023-05-09T15:15:17.295Z,19.70
2023-05-09T15:17:45.601Z,18.60
2023-05-09T15:20:15.660Z,19.50
2023-05-09T15:22:43.907Z,18.90
2023-05-09T15:25:11.935Z,19.60
2023-05-09T15:27:40.098Z,20.10
2023-05-09T15:30:09.990Z,19.90
2023-05-09T15:32:42.972Z,19.00
2023-05-09T15:35:11.388Z,18.80
2023-05-09T15:37:39.479Z,19.80
2023-05-09T15:40:09.178Z,20.00
2023-05-09T15:42:39.065Z,18.80
2023-05-09T15:45:08.043Z,19.60
2023-05-09T15:47:36.122Z,20.60
2023-05-09T15:50:05.903Z,19.90
2023-05-09T15:52:33.810Z,20.30
2023-05-09T15:55:02.178Z,20.10
2023-05-09T15:57:30.116Z,20.00
2023-05-09T15:59:58.367Z,20.10
2023-05-09T16:02:26.396Z,19.80
2023-05-09T16:04:54.385Z,19.60
2023-05-09T16:07:23.706Z,19.50
2023-05-09T16:09:51.946Z,20.40
2023-05-09T16:12:19.891Z,19.40
2023-05-09T16:14:47.816Z,20.40
2023-05-09T16:17:15.760Z,19.60
2023-05-09T16:19:43.694Z,20.10
2023-05-09T16:22:11.870Z,20.30
2023-05-09T16:24:41.181Z,21.10
2023-05-09T16:27:09.143Z,21.20
2023-05-09T16:29:37.090Z,20.50
2023-05-09T16:32:05.246Z,19.90
2023-05-09T16:34:33.512Z,20.50
2023-05-09T16:37:01.854Z,21.20
2023-05-09T16:39:30.607Z,20.60
2023-05-09T16:42:00.132Z,21.10
2023-05-09T16:44:28.300Z,23.10
2023-05-09T16:46:58.725Z,22.00
2023-05-09T16:49:26.748Z,22.10
2023-05-09T16:51:54.625Z,21.50
2023-05-09T16:54:23.281Z,20.90
2023-05-09T16:56:51.554Z,21.00
2023-05-09T16:59:21.877Z,22.20
2023-05-09T17:01:49.848Z,21.60
2023-05-09T17:04:17.831Z,20.70
2023-05-09T17:06:45.758Z,19.20
2023-05-09T17:09:13.703Z,19.70
2023-05-09T17:11:41.809Z,19.40
2023-05-09T17:14:09.783Z,19.60
2023-05-09T17:16:42.537Z,20.40
2023-05-09T17:19:10.552Z,18.80
2023-05-09T17:21:41.716Z,19.00
2023-05-09T17:24:10.295Z,20.10
2023-05-09T17:26:38.715Z,19.30
2023-05-09T17:29:06.879Z,19.00
2023-05-09T17:31:34.811Z,19.40
2023-05-09T17:34:04.205Z,19.60
2023-05-09T17:36:32.099Z,19.50
2023-05-09T17:39:00.062Z,20.30
2023-05-09T17:41:27.961Z,20.10
2023-05-09T17:43:57.218Z,20.60
2023-05-09T17:46:25.715Z,19.60
2023-05-09T17:48:53.622Z,20.90
2023-05-09T17:51:22.878Z,20.00
2023-05-09T17:53:52.720Z,20.10
2023-05-09T17:56:21.300Z,21.20
2023-05-09T17:58:52.923Z,21.10
2023-05-09T18:01:21.712Z,22.20
2023-05-09T18:03:49.797Z,21.80
2023-05-09T18:06:19.305Z,23.30
2023-05-09T18:08:48.567Z,22.80
2023-05-09T18:11:16.481Z,22.40
2023-05-09T18:13:44.498Z,21.90
2023-05-09T18:16:12.534Z,21.90
2023-05-09T18:18:40.512Z,22.50
2023-05-09T18:21:09.592Z,23.60
2023-05-09T18:23:37.698Z,23.10
2023-05-09T18:26:07.787Z,23.10
2023-05-09T18:28:39.370Z,24.60
2023-05-09T18:31:09.412Z,25.00
2023-05-09T18:33:38.999Z,25.80
2023-05-09T18:36:08.912Z,26.30
2023-05-09T18:38:38.608Z,28.10
2023-05-09T18:41:09.445Z,28.00
2023-05-09T18:43:38.972Z,29.10
2023-05-09T18:46:08.030Z,29.40
2023-05-09T18:48:35.978Z,28.90
2023-05-09T18:51:04.402Z,30.20
2023-05-09T18:53:32.723Z,30.70
2023-05-09T18:56:01.341Z,30.40
2023-05-09T18:58:30.918Z,30.70
2023-05-09T19:00:58.960Z,31.00
2023-05-09T19:03:27.689Z,31.60
2023-05-09T19:05:55.887Z,32.40
2023-05-09T19:08:23.787Z,32.40
2023-05-09T19:10:51.879Z,32.80
2023-05-09T19:13:19.929Z,33.70
2023-05-09T19:15:50.154Z,33.70
2023-05-09T19:18:18.110Z,34.40
2023-05-09T19:20:47.255Z,34.70
2023-05-09T19:23:15.171Z,33.70
2023-05-09T19:25:43.120Z,35.20
2023-05-09T19:28:12.123Z,35.10
2023-05-09T19:30:40.061Z,35.20
2023-05-09T19:33:09.466Z,36.20
2023-05-09T19:35:38.305Z,35.00
2023-05-09T19:38:06.356Z,36.40
2023-05-09T19:40:34.290Z,37.20
2023-05-09T19:43:02.178Z,38.40
2023-05-09T19:45:30.145Z,37.10
2023-05-09T19:47:58.148Z,35.90
2023-05-09T19:50:27.522Z,35.70
2023-05-09T19:52:55.548Z,34.50
2023-05-09T19:55:23.580Z,35.90
2023-05-09T19:57:51.511Z,33.50
2023-05-09T20:00:20.242Z,35.40
2023-05-09T20:02:48.266Z,33.50
2023-05-09T20:05:16.215Z,32.30
2023-05-09T20:07:45.516Z,31.00
2023-05-09T20:10:15.464Z,29.50
2023-05-09T20:12:44.467Z,28.90
2023-05-09T20:15:13.597Z,27.40
2023-05-09T20:17:41.596Z,28.10
2023-05-09T20:20:11.312Z,30.00
2023-05-09T20:22:39.917Z,28.70
2023-05-09T20:25:10.417Z,33.80
2023-05-09T20:27:38.407Z,32.30
2023-05-09T20:30:07.317Z,30.20
2023-05-09T20:32:35.711Z,30.50
2023-05-09T20:35:03.886Z,29.40
2023-05-09T20:37:31.903Z,32.90
2023-05-09T20:39:59.770Z,27.10
2023-05-09T20:42:29.019Z,26.50
2023-05-09T20:44:57.063Z,25.60
2023-05-09T20:47:25.433Z,26.30
2023-05-09T20:49:53.406Z,27.50
2023-05-09T20:52:21.401Z,30.60
2023-05-09T20:54:49.349Z,31.50
2023-05-09T20:57:17.214Z,39.40
2023-05-09T20:59:46.453Z,41.00
2023-05-09T21:02:14.772Z,41.00
2023-05-09T21:04:42.761Z,44.80
2023-05-09T21:07:11.965Z,46.70
2023-05-09T21:09:39.952Z,49.10
2023-05-09T21:12:10.478Z,52.40
2023-05-09T21:14:39.112Z,56.40
2023-05-09T21:17:08.479Z,60.40
2023-05-09T21:19:36.426Z,62.30
2023-05-09T21:22:04.388Z,65.20
2023-05-09T21:24:32.322Z,69.40
2023-05-09T21:27:00.189Z,73.00
2023-05-09T21:29:28.122Z,78.10
2023-05-09T21:31:56.022Z,79.30
2023-05-09T21:34:25.265Z,84.30
2023-05-09T21:36:53.167Z,87.20
2023-05-09T21:39:21.114Z,90.80
2023-05-09T21:41:49.054Z,91.10
2023-05-09T21:44:17.015Z,90.70
2023-05-09T21:46:46.383Z,90.80
2023-05-09T21:49:16.609Z,91.50
2023-05-09T21:51:46.095Z,92.20
2023-05-09T21:54:13.985Z,93.50
2023-05-09T21:56:42.512Z,94.20
2023-05-09T21:59:10.583Z,95.10
2023-05-09T22:01:38.718Z,95.60
2023-05-09T22:04:07.295Z,96.10
2023-05-09T22:06:35.311Z,96.40
2023-05-09T22:09:05.455Z,96.90
2023-05-09T22:11:33.669Z,97.40
2023-05-09T22:14:01.962Z,97.60
2023-05-09T22:16:30.222Z,98.20
2023-05-09T22:18:58.475Z,97.70
2023-05-09T22:21:26.343Z,98.70
2023-05-09T22:23:54.211Z,98.90
2023-05-09T22:26:23.476Z,99.00
2023-05-09T22:28:51.419Z,98.40
2023-05-09T22:31:19.436Z,98.90
2023-05-09T22:33:47.378Z,99.40
2023-05-09T22:36:15.438Z,99.60
2023-05-09T22:38:44.184Z,99.80
2023-05-09T22:41:12.250Z,99.40
2023-05-09T22:43:41.563Z,99.90
2023-05-09T22:46:09.636Z,99.70
2023-05-09T22:48:37.538Z,99.60
2023-05-09T22:51:05.554Z,99.90
2023-05-09T22:53:33.740Z,99.90
2023-05-09T22:56:01.801Z,99.90
2023-05-09T22:58:29.750Z,99.90
2023-05-09T23:00:58.989Z,99.90
2023-05-09T23:03:27.021Z,99.90
2023-05-09T23:05:55.051Z,99.90
2023-05-09T23:08:22.957Z,99.90
2023-05-09T23:10:50.867Z,99.90
2023-05-09T23:13:18.841Z,99.90
2023-05-09T23:15:48.190Z,99.90
2023-05-09T23:18:17.526Z,99.90
2023-05-09T23:20:46.110Z,99.90
2023-05-09T23:23:14.046Z,99.90
2023-05-09T23:25:42.002Z,99.90
2023-05-09T23:28:09.879Z,99.90
2023-05-09T23:30:37.794Z,99.90
2023-05-09T23:33:05.735Z,99.90
2023-05-09T23:35:35.031Z,99.90
2023-05-09T23:38:04.341Z,99.90
2023-05-09T23:40:32.238Z,99.90
2023-05-09T23:43:00.136Z,99.90
2023-05-09T23:45:28.290Z,99.90
2023-05-09T23:47:57.125Z,99.90
2023-05-09T23:50:25.090Z,99.90
2023-05-09T23:52:54.347Z,99.90
2023-05-09T23:55:22.274Z,99.90
2023-05-09T23:57:50.136Z,99.90
